createdAt,value
2022-08-23T00:01:29.170Z,16.55
2022-08-23T00:04:02.319Z,16.54
2022-08-23T00:06:29.847Z,16.48
2022-08-23T00:08:56.704Z,16.48
2022-08-23T00:11:38.105Z,16.58
2022-08-23T00:14:20.311Z,16.63
2022-08-23T00:16:47.477Z,16.66
2022-08-23T00:19:16.669Z,16.67
2022-08-23T00:21:44.460Z,16.73
2022-08-23T00:24:13.582Z,16.70
2022-08-23T00:27:11.404Z,16.81
2022-08-23T00:29:40.830Z,16.74
2022-08-23T00:32:11.174Z,16.59
2022-08-23T00:34:38.882Z,16.60
2022-08-23T00:37:06.302Z,16.71
2022-08-23T00:39:33.030Z,16.71
2022-08-23T00:42:25.197Z,16.78
2022-08-23T00:45:10.635Z,16.70
2022-08-23T00:47:40.277Z,16.54
2022-08-23T00:50:25.521Z,16.60
2022-08-23T00:53:15.118Z,16.65
2022-08-23T00:55:45.278Z,16.60
2022-08-23T00:58:13.724Z,16.57
2022-08-23T01:00:41.131Z,16.52
2022-08-23T01:03:10.388Z,16.47
2022-08-23T01:05:48.398Z,16.41
2022-08-23T01:08:14.941Z,16.46
2022-08-23T01:10:55.525Z,16.38
2022-08-23T01:13:31.172Z,16.30
2022-08-23T01:16:09.846Z,16.30
2022-08-23T01:18:37.905Z,16.16
2022-08-23T01:21:29.036Z,16.24
2022-08-23T01:24:00.454Z,16.21
2022-08-23T01:26:27.451Z,16.16
2022-08-23T01:28:55.133Z,16.10
2022-08-23T01:31:23.824Z,15.97
2022-08-23T01:33:56.968Z,15.96
2022-08-23T01:36:23.482Z,15.75
2022-08-23T01:38:50.146Z,15.82
2022-08-23T01:41:16.585Z,15.74
2022-08-23T01:43:44.135Z,15.71
2022-08-23T01:46:31.991Z,15.79
2022-08-23T01:48:59.300Z,15.55
2022-08-23T01:51:29.851Z,15.58
2022-08-23T01:53:56.486Z,15.47
2022-08-23T01:56:38.922Z,15.56
2022-08-23T01:59:08.399Z,15.58
2022-08-23T02:01:35.720Z,15.56
2022-08-23T02:04:04.505Z,15.51
2022-08-23T02:06:32.247Z,15.61
2022-08-23T02:09:01.560Z,15.75
2022-08-23T02:11:34.823Z,15.65
2022-08-23T02:14:06.930Z,15.65
2022-08-23T02:16:36.968Z,15.56
2022-08-23T02:19:07.659Z,15.57
2022-08-23T02:21:37.418Z,15.60
2022-08-23T02:24:15.793Z,15.50
2022-08-23T02:26:46.552Z,15.55
2022-08-23T02:29:15.653Z,15.62
2022-08-23T02:31:44.341Z,15.56
2022-08-23T02:37:00.171Z,15.63
2022-08-23T02:39:27.535Z,15.71
2022-08-23T02:41:55.084Z,15.79
2022-08-23T02:44:22.466Z,15.69
2022-08-23T02:46:49.419Z,15.65
2022-08-23T02:49:17.050Z,15.71
2022-08-23T02:51:44.928Z,15.60
2022-08-23T02:54:11.586Z,15.48
2022-08-23T02:56:41.714Z,15.61
2022-08-23T02:59:08.609Z,15.18
2022-08-23T03:01:39.142Z,15.15
2022-08-23T03:04:09.809Z,15.15
2022-08-23T03:06:38.782Z,15.23
2022-08-23T03:09:07.785Z,15.18
2022-08-23T03:11:35.840Z,15.21
2022-08-23T03:14:03.266Z,15.30
2022-08-23T03:16:30.225Z,14.70
2022-08-23T03:18:56.708Z,14.73
2022-08-23T03:21:24.161Z,14.54
2022-08-23T03:23:51.209Z,14.71
2022-08-23T03:26:17.829Z,14.95
2022-08-23T03:28:45.582Z,15.03
2022-08-23T03:31:13.442Z,15.06
2022-08-23T03:33:40.284Z,15.04
2022-08-23T03:36:09.121Z,14.97
2022-08-23T03:38:36.892Z,14.96
2022-08-23T03:41:03.309Z,14.87
2022-08-23T03:43:29.907Z,14.88
2022-08-23T03:45:56.670Z,14.82
2022-08-23T03:48:23.157Z,14.67
2022-08-23T03:50:49.588Z,14.69
2022-08-23T03:53:16.648Z,14.60
2022-08-23T03:55:43.620Z,14.42
2022-08-23T03:58:11.346Z,14.30
2022-08-23T04:00:39.645Z,14.24
2022-08-23T04:03:06.774Z,14.38
2022-08-23T04:05:33.310Z,14.31
2022-08-23T04:08:02.689Z,14.12
2022-08-23T04:10:29.439Z,14.12
2022-08-23T04:12:56.268Z,14.26
2022-08-23T04:15:22.809Z,14.42
2022-08-23T04:17:49.263Z,14.39
2022-08-23T04:20:16.366Z,14.26
2022-08-23T04:22:47.843Z,14.11
2022-08-23T04:25:33.102Z,13.93
2022-08-23T04:28:01.877Z,13.85
2022-08-23T04:30:32.534Z,13.79
2022-08-23T04:33:01.747Z,13.79
2022-08-23T04:35:28.345Z,13.90
2022-08-23T04:37:54.768Z,13.69
2022-08-23T04:40:46.289Z,13.64
2022-08-23T04:43:12.861Z,13.57
2022-08-23T04:45:40.104Z,13.58
2022-08-23T04:48:11.987Z,13.56
2022-08-23T04:50:39.687Z,13.76
2022-08-23T04:53:08.150Z,13.78
2022-08-23T04:55:36.381Z,13.76
2022-08-23T04:58:03.291Z,13.81
2022-08-23T05:00:34.435Z,13.91
2022-08-23T05:03:00.834Z,13.93
2022-08-23T05:05:27.897Z,13.95
2022-08-23T05:07:55.095Z,14.02
2022-08-23T05:10:21.999Z,14.18
2022-08-23T05:12:49.474Z,14.31
2022-08-23T05:15:21.430Z,14.28
2022-08-23T05:17:48.101Z,14.33
2022-08-23T05:20:14.695Z,14.21
2022-08-23T05:22:41.983Z,14.22
2022-08-23T05:25:09.558Z,14.29
2022-08-23T05:27:37.888Z,14.45
2022-08-23T05:30:08.188Z,14.52
2022-08-23T05:32:41.612Z,14.67
2022-08-23T05:35:08.417Z,14.85
2022-08-23T05:37:34.813Z,14.86
2022-08-23T05:40:01.228Z,15.11
2022-08-23T05:42:27.782Z,15.27
2022-08-23T05:44:54.175Z,15.31
2022-08-23T05:47:24.637Z,15.27
2022-08-23T05:49:51.569Z,15.48
2022-08-23T05:52:17.962Z,15.40
2022-08-23T05:54:44.406Z,15.39
2022-08-23T05:57:11.627Z,15.54
2022-08-23T05:59:39.750Z,15.80
2022-08-23T06:02:06.207Z,16.02
2022-08-23T06:04:33.083Z,16.18
2022-08-23T06:07:00.093Z,16.64
2022-08-23T06:09:26.879Z,17.52
2022-08-23T06:11:54.032Z,17.94
2022-08-23T06:14:20.733Z,18.03
2022-08-23T06:16:51.692Z,18.65
2022-08-23T06:19:21.595Z,18.10
2022-08-23T06:21:48.619Z,18.83
2022-08-23T06:24:15.197Z,18.16
2022-08-23T06:26:45.265Z,19.66
2022-08-23T06:29:16.589Z,19.75
2022-08-23T06:31:49.040Z,19.52
2022-08-23T06:34:24.611Z,19.73
2022-08-23T06:36:56.109Z,19.64
2022-08-23T06:39:26.023Z,20.33
2022-08-23T06:41:54.002Z,19.09
2022-08-23T06:44:20.843Z,20.79
2022-08-23T06:46:50.076Z,21.09
2022-08-23T06:49:16.564Z,20.63
2022-08-23T06:51:46.141Z,21.63
2022-08-23T06:54:15.232Z,21.00
2022-08-23T06:56:45.180Z,21.74
2022-08-23T06:59:12.381Z,21.10
2022-08-23T07:01:54.275Z,21.57
2022-08-23T07:04:26.422Z,22.13
2022-08-23T07:06:53.113Z,22.11
2022-08-23T07:09:19.913Z,22.50
2022-08-23T07:11:46.870Z,22.37
2022-08-23T07:14:18.994Z,22.81
2022-08-23T07:16:51.643Z,22.25
2022-08-23T07:19:20.413Z,22.67
2022-08-23T07:21:48.827Z,23.10
2022-08-23T07:24:18.260Z,22.80
2022-08-23T07:26:46.773Z,23.48
2022-08-23T07:29:19.791Z,23.84
2022-08-23T07:31:48.284Z,24.66
2022-08-23T07:34:19.002Z,25.05
2022-08-23T07:36:47.414Z,24.39
2022-08-23T07:39:15.096Z,24.26
2022-08-23T07:41:42.287Z,24.70
2022-08-23T07:44:10.663Z,26.22
2022-08-23T07:46:40.858Z,25.39
2022-08-23T07:49:08.677Z,26.50
2022-08-23T07:51:36.780Z,25.06
2022-08-23T07:54:06.661Z,25.65
2022-08-23T07:56:35.115Z,25.42
2022-08-23T07:59:01.814Z,24.91
2022-08-23T08:01:29.640Z,24.92
2022-08-23T08:03:59.249Z,26.76
2022-08-23T08:06:59.940Z,27.16
2022-08-23T08:09:34.587Z,26.13
2022-08-23T08:12:01.120Z,27.07
2022-08-23T08:14:27.678Z,28.08
2022-08-23T08:16:56.208Z,25.34
2022-08-23T08:19:23.190Z,26.89
2022-08-23T08:21:49.635Z,26.57
2022-08-23T08:24:17.527Z,26.09
2022-08-23T08:26:45.869Z,28.16
2022-08-23T08:29:15.345Z,27.78
2022-08-23T08:31:44.326Z,27.29
2022-08-23T08:34:11.953Z,28.27
2022-08-23T08:36:44.756Z,28.31
2022-08-23T08:39:13.008Z,28.35
2022-08-23T08:41:58.776Z,28.97
2022-08-23T08:44:47.086Z,30.34
2022-08-23T08:47:38.319Z,28.89
2022-08-23T08:50:27.194Z,27.92
2022-08-23T08:53:09.245Z,28.08
2022-08-23T08:55:49.282Z,28.35
2022-08-23T08:58:27.294Z,30.25
2022-08-23T09:00:56.563Z,29.34
2022-08-23T09:03:25.719Z,30.82
2022-08-23T09:06:03.183Z,30.88
2022-08-23T09:08:56.309Z,29.79
2022-08-23T09:12:05.541Z,30.68
2022-08-23T09:14:58.445Z,28.95
2022-08-23T09:17:32.157Z,29.82
2022-08-23T09:20:06.281Z,30.14
2022-08-23T09:22:47.675Z,30.78
2022-08-23T09:25:16.941Z,28.82
2022-08-23T09:27:45.723Z,29.39
2022-08-23T09:30:15.044Z,28.89
2022-08-23T09:32:44.484Z,29.99
2022-08-23T09:35:17.240Z,30.68
2022-08-23T09:37:55.327Z,30.30
2022-08-23T09:40:38.994Z,31.75
2022-08-23T09:43:23.553Z,28.94
2022-08-23T09:45:49.912Z,30.14
2022-08-23T09:48:39.450Z,29.94
2022-08-23T09:51:08.658Z,32.05
2022-08-23T09:53:35.365Z,31.08
2022-08-23T09:56:22.157Z,32.24
2022-08-23T09:58:52.537Z,30.88
2022-08-23T10:01:22.111Z,30.85
2022-08-23T10:04:12.059Z,32.35
2022-08-23T10:06:40.890Z,31.24
2022-08-23T10:09:10.006Z,30.65
2022-08-23T10:11:41.200Z,32.37
2022-08-23T10:14:11.295Z,33.66
2022-08-23T10:16:47.737Z,31.76
2022-08-23T10:19:26.530Z,30.46
2022-08-23T10:22:14.387Z,30.02
2022-08-23T10:24:50.786Z,31.34
2022-08-23T10:27:50.599Z,31.89
2022-08-23T10:30:22.405Z,30.02
2022-08-23T10:33:18.519Z,32.49
2022-08-23T10:36:11.260Z,30.89
2022-08-23T10:38:45.615Z,33.38
2022-08-23T10:41:43.497Z,32.28
2022-08-23T10:44:23.193Z,32.63
2022-08-23T10:47:15.525Z,30.83
2022-08-23T10:49:43.340Z,30.95
2022-08-23T10:52:18.243Z,32.31
2022-08-23T10:55:10.095Z,32.91
2022-08-23T10:57:40.920Z,33.89
2022-08-23T11:00:15.364Z,34.08
2022-08-23T11:02:50.569Z,30.28
2022-08-23T11:05:30.617Z,31.12
2022-08-23T11:08:03.431Z,30.26
2022-08-23T11:10:33.156Z,30.97
2022-08-23T11:13:19.122Z,32.85
2022-08-23T11:15:45.719Z,33.99
2022-08-23T11:18:37.949Z,30.52
2022-08-23T11:21:25.697Z,32.40
2022-08-23T11:24:15.582Z,34.13
2022-08-23T11:26:46.993Z,31.00
2022-08-23T11:29:23.367Z,32.09
2022-08-23T11:32:02.036Z,32.22
2022-08-23T11:34:48.249Z,31.63
2022-08-23T11:37:20.927Z,32.31
2022-08-23T11:39:57.504Z,32.57
2022-08-23T11:42:44.115Z,31.76
2022-08-23T11:45:41.299Z,35.16
2022-08-23T11:48:22.700Z,34.14
2022-08-23T11:50:58.058Z,32.06
2022-08-23T11:53:57.973Z,34.98
2022-08-23T11:56:33.657Z,34.71
2022-08-23T11:59:30.063Z,33.13
2022-08-23T12:01:58.667Z,33.93
2022-08-23T12:04:49.289Z,36.03
2022-08-23T12:07:54.528Z,32.59
2022-08-23T12:10:45.162Z,35.84
2022-08-23T12:13:20.916Z,32.42
2022-08-23T12:16:07.556Z,33.43
2022-08-23T12:18:52.883Z,31.66
2022-08-23T12:21:24.056Z,30.74
2022-08-23T12:23:53.327Z,32.23
2022-08-23T12:26:35.250Z,34.23
2022-08-23T12:29:12.442Z,32.50
2022-08-23T12:31:56.954Z,31.33
2022-08-23T12:34:32.632Z,33.10
2022-08-23T12:37:23.556Z,32.02
2022-08-23T12:39:59.306Z,34.75
2022-08-23T12:42:30.272Z,32.36
2022-08-23T12:45:13.550Z,33.58
2022-08-23T12:47:43.326Z,34.47
2022-08-23T12:50:15.501Z,36.81
2022-08-23T12:52:42.178Z,37.11
2022-08-23T12:55:17.441Z,34.51
2022-08-23T12:57:51.738Z,34.71
2022-08-23T13:00:24.346Z,34.00
2022-08-23T13:02:58.776Z,34.81
2022-08-23T13:05:48.045Z,34.55
2022-08-23T13:08:33.589Z,32.30
2022-08-23T13:11:07.469Z,33.36
2022-08-23T13:13:37.320Z,34.31
2022-08-23T13:16:27.254Z,32.69
2022-08-23T13:18:56.075Z,33.95
2022-08-23T13:21:22.907Z,31.99
2022-08-23T13:23:55.210Z,32.95
2022-08-23T13:26:26.919Z,30.73
2022-08-23T13:29:11.795Z,31.41
2022-08-23T13:32:02.566Z,30.34
2022-08-23T13:34:48.767Z,29.01
2022-08-23T13:37:18.654Z,30.07
2022-08-23T13:39:58.721Z,29.82
2022-08-23T13:42:33.468Z,30.60
2022-08-23T13:45:07.862Z,31.05
2022-08-23T13:47:36.484Z,30.47
2022-08-23T13:50:09.766Z,28.90
2022-08-23T13:52:56.637Z,29.56
2022-08-23T13:55:26.292Z,29.25
2022-08-23T13:57:52.988Z,30.05
2022-08-23T14:00:22.711Z,29.03
2022-08-23T14:02:49.605Z,28.70
2022-08-23T14:05:20.010Z,28.97
2022-08-23T14:07:48.410Z,29.34
2022-08-23T14:10:15.715Z,29.73
2022-08-23T14:12:46.935Z,29.27
2022-08-23T14:15:13.948Z,29.98
2022-08-23T14:17:43.222Z,29.38
2022-08-23T14:23:02.363Z,28.93
2022-08-23T14:25:35.554Z,28.98
2022-08-23T14:28:01.944Z,28.21
2022-08-23T14:30:36.268Z,28.15
2022-08-23T14:33:06.329Z,28.11
2022-08-23T14:35:33.110Z,28.42
2022-08-23T14:38:03.272Z,28.90
2022-08-23T14:40:30.974Z,28.05
2022-08-23T14:42:58.861Z,28.22
2022-08-23T14:45:25.553Z,28.60
2022-08-23T14:47:52.003Z,27.84
2022-08-23T14:50:18.587Z,28.08
2022-08-23T14:52:48.787Z,28.10
2022-08-23T14:55:16.387Z,28.35
2022-08-23T14:57:43.280Z,28.32
2022-08-23T15:00:15.211Z,28.27
2022-08-23T15:02:46.191Z,28.09
2022-08-23T15:05:13.931Z,28.36
2022-08-23T15:07:40.634Z,28.12
2022-08-23T15:10:09.980Z,28.26
2022-08-23T15:15:23.894Z,28.14
2022-08-23T15:17:58.198Z,28.07
2022-08-23T15:20:29.065Z,27.99
2022-08-23T15:22:56.274Z,28.08
2022-08-23T15:25:24.796Z,28.12
2022-08-23T15:27:51.914Z,27.91
2022-08-23T15:30:18.720Z,27.93
2022-08-23T15:32:52.132Z,27.83
2022-08-23T15:35:19.896Z,27.93
2022-08-23T15:37:48.370Z,28.23
2022-08-23T15:40:16.112Z,27.93
2022-08-23T15:42:42.818Z,27.88
2022-08-23T15:45:09.700Z,27.92
2022-08-23T15:47:58.803Z,28.06
2022-08-23T15:50:31.034Z,28.19
2022-08-23T15:52:58.005Z,27.53
2022-08-23T15:55:29.083Z,27.61
2022-08-23T15:57:59.021Z,27.87
2022-08-23T16:00:27.426Z,27.67
2022-08-23T16:03:18.461Z,27.49
2022-08-23T16:05:43.805Z,27.77
2022-08-23T16:08:17.414Z,27.48
2022-08-23T16:10:43.817Z,27.44
2022-08-23T16:13:10.559Z,27.40
2022-08-23T16:15:39.091Z,27.37
2022-08-23T16:18:08.200Z,27.43
2022-08-23T16:20:34.671Z,27.40
2022-08-23T16:23:01.367Z,27.51
2022-08-23T16:25:27.889Z,27.11
2022-08-23T16:27:54.678Z,27.16
2022-08-23T16:30:21.294Z,27.09
2022-08-23T16:32:48.047Z,26.97
2022-08-23T16:35:15.463Z,26.98
2022-08-23T16:37:42.217Z,26.93
2022-08-23T16:40:09.723Z,27.21
2022-08-23T16:42:37.746Z,27.11
2022-08-23T16:45:05.189Z,27.24
2022-08-23T16:47:35.156Z,26.92
2022-08-23T16:50:01.709Z,26.89
2022-08-23T16:52:34.643Z,26.75
2022-08-23T16:55:03.374Z,26.94
2022-08-23T16:57:29.794Z,27.00
2022-08-23T16:59:56.200Z,27.09
2022-08-23T17:02:32.041Z,26.97
2022-08-23T17:04:59.358Z,26.71
2022-08-23T17:07:26.102Z,26.80
2022-08-23T17:09:52.525Z,26.82
2022-08-23T17:12:19.598Z,26.77
2022-08-23T17:14:48.874Z,26.80
2022-08-23T17:17:16.349Z,26.65
2022-08-23T17:19:44.012Z,26.39
2022-08-23T17:22:10.819Z,26.51
2022-08-23T17:24:37.422Z,26.25
2022-08-23T17:27:05.353Z,26.02
2022-08-23T17:29:37.387Z,26.22
2022-08-23T17:32:04.511Z,26.12
2022-08-23T17:34:31.077Z,26.09
2022-08-23T17:36:57.481Z,26.12
2022-08-23T17:39:28.986Z,26.00
2022-08-23T17:41:56.371Z,25.93
2022-08-23T17:44:22.979Z,25.83
2022-08-23T17:46:50.863Z,25.86
2022-08-23T17:49:18.841Z,25.83
2022-08-23T17:51:45.718Z,25.74
2022-08-23T17:54:16.101Z,25.57
2022-08-23T17:56:50.241Z,25.52
2022-08-23T17:59:18.877Z,25.36
2022-08-23T18:01:45.369Z,25.54
2022-08-23T18:04:11.816Z,25.38
2022-08-23T18:06:39.202Z,25.43
2022-08-23T18:09:07.025Z,25.26
2022-08-23T18:11:34.135Z,25.24
2022-08-23T18:14:00.653Z,25.13
2022-08-23T18:16:33.128Z,25.07
2022-08-23T18:19:02.699Z,24.98
2022-08-23T18:21:30.947Z,24.89
2022-08-23T18:23:58.854Z,24.85
2022-08-23T18:26:44.567Z,24.73
2022-08-23T18:29:14.080Z,24.63
2022-08-23T18:31:42.713Z,24.66
2022-08-23T18:34:11.021Z,24.59
2022-08-23T18:36:37.946Z,24.47
2022-08-23T18:39:07.702Z,24.45
2022-08-23T18:41:34.945Z,24.40
2022-08-23T18:44:05.468Z,24.32
2022-08-23T18:46:37.777Z,24.22
2022-08-23T18:49:05.998Z,24.10
2022-08-23T18:51:32.514Z,24.04
2022-08-23T18:53:59.753Z,23.96
2022-08-23T18:56:26.815Z,23.93
2022-08-23T18:58:53.591Z,23.86
2022-08-23T19:01:39.109Z,23.78
2022-08-23T19:04:07.423Z,23.77
2022-08-23T19:06:34.746Z,23.67
2022-08-23T19:09:01.198Z,23.55
2022-08-23T19:11:29.922Z,23.53
2022-08-23T19:13:58.551Z,23.43
2022-08-23T19:16:26.836Z,23.36
2022-08-23T19:18:55.375Z,23.36
2022-08-23T19:21:24.297Z,23.28
2022-08-23T19:23:55.369Z,23.21
2022-08-23T19:26:25.815Z,23.13
2022-08-23T19:28:52.522Z,23.03
2022-08-23T19:31:19.049Z,22.96
2022-08-23T19:33:46.167Z,22.96
2022-08-23T19:36:29.374Z,22.85
2022-08-23T19:38:59.216Z,22.83
2022-08-23T19:41:25.933Z,22.80
2022-08-23T19:43:52.393Z,22.75
2022-08-23T19:46:18.948Z,22.55
2022-08-23T19:48:47.374Z,22.50
2022-08-23T19:51:17.169Z,22.37
2022-08-23T19:54:11.184Z,22.27
2022-08-23T19:56:48.658Z,22.24
2022-08-23T19:59:25.282Z,22.15
2022-08-23T20:01:53.590Z,22.12
2022-08-23T20:04:21.548Z,22.09
2022-08-23T20:06:50.854Z,21.96
2022-08-23T20:09:18.709Z,21.97
2022-08-23T20:11:45.350Z,21.95
2022-08-23T20:14:11.815Z,21.93
2022-08-23T20:16:40.684Z,21.93
2022-08-23T20:19:10.442Z,21.88
2022-08-23T20:21:39.980Z,21.73
2022-08-23T20:24:10.244Z,21.88
2022-08-23T20:26:41.915Z,21.72
2022-08-23T20:29:17.971Z,21.64
2022-08-23T20:31:56.202Z,21.51
2022-08-23T20:34:27.022Z,21.44
2022-08-23T20:36:56.170Z,21.38
2022-08-23T20:39:24.583Z,21.39
2022-08-23T20:41:52.331Z,21.34
2022-08-23T20:44:20.925Z,21.25
2022-08-23T20:46:51.844Z,21.22
2022-08-23T20:49:21.147Z,21.16
2022-08-23T20:51:48.192Z,21.15
2022-08-23T20:54:17.123Z,21.09
2022-08-23T20:56:44.055Z,21.05
2022-08-23T20:59:12.805Z,20.95
2022-08-23T21:01:39.424Z,20.85
2022-08-23T21:04:07.355Z,20.80
2022-08-23T21:06:45.326Z,20.80
2022-08-23T21:09:17.036Z,20.68
2022-08-23T21:11:43.938Z,20.68
2022-08-23T21:14:10.326Z,20.67
2022-08-23T21:16:37.415Z,20.71
2022-08-23T21:19:03.938Z,20.68
2022-08-23T21:21:31.221Z,20.71
2022-08-23T21:23:58.175Z,20.70
2022-08-23T21:26:27.543Z,20.68
2022-08-23T21:28:54.925Z,20.76
2022-08-23T21:31:24.950Z,20.72
2022-08-23T21:33:53.094Z,20.73
2022-08-23T21:36:24.661Z,20.62
2022-08-23T21:38:52.597Z,20.39
2022-08-23T21:41:32.252Z,20.19
2022-08-23T21:43:59.547Z,20.09
2022-08-23T21:46:26.995Z,19.94
2022-08-23T21:48:54.161Z,19.79
2022-08-23T21:51:20.735Z,19.86
2022-08-23T21:53:47.636Z,19.74
2022-08-23T21:56:14.961Z,19.69
2022-08-23T21:58:41.489Z,19.58
2022-08-23T22:01:09.137Z,19.59
2022-08-23T22:03:36.726Z,19.51
2022-08-23T22:06:04.881Z,19.46
2022-08-23T22:08:31.940Z,19.25
2022-08-23T22:11:07.122Z,19.08
2022-08-23T22:13:38.139Z,18.98
2022-08-23T22:16:05.067Z,18.93
2022-08-23T22:18:34.763Z,18.69
2022-08-23T22:21:06.379Z,18.72
2022-08-23T22:23:34.066Z,18.62
2022-08-23T22:26:03.353Z,18.55
2022-08-23T22:28:32.569Z,18.55
2022-08-23T22:31:04.852Z,18.51
2022-08-23T22:33:32.070Z,18.42
2022-08-23T22:36:03.932Z,18.46
2022-08-23T22:38:32.901Z,18.36
2022-08-23T22:40:59.644Z,18.24
2022-08-23T22:43:26.138Z,18.34
2022-08-23T22:45:54.910Z,18.35
2022-08-23T22:48:22.332Z,18.24
2022-08-23T22:50:51.561Z,18.28
2022-08-23T22:53:18.429Z,18.23
2022-08-23T22:55:52.616Z,18.19
2022-08-23T22:58:19.001Z,18.11
2022-08-23T23:00:45.488Z,17.84
2022-08-23T23:03:12.194Z,17.73
2022-08-23T23:05:39.539Z,17.61
2022-08-23T23:08:24.359Z,17.53
2022-08-23T23:10:50.888Z,17.58
2022-08-23T23:13:17.526Z,17.55
2022-08-23T23:15:47.363Z,17.55
2022-08-23T23:18:13.737Z,17.59
2022-08-23T23:20:41.305Z,17.68
2022-08-23T23:23:12.553Z,17.74
2022-08-23T23:25:40.016Z,17.68
2022-08-23T23:28:06.459Z,17.60
2022-08-23T23:30:40.121Z,17.48
2022-08-23T23:33:06.786Z,17.33
2022-08-23T23:35:34.323Z,17.18
2022-08-23T23:38:01.184Z,17.23
2022-08-23T23:40:29.179Z,17.09
2022-08-23T23:42:58.738Z,17.16
2022-08-23T23:45:28.481Z,17.16
2022-08-23T23:47:56.839Z,17.20
2022-08-23T23:50:25.328Z,17.11
2022-08-23T23:52:51.856Z,17.01
2022-08-23T23:55:21.016Z,16.97
2022-08-23T23:57:47.454Z,16.94
